sensor_id;sensor_type;location;lat;lon;timestamp;temperature;humidity
16700;DHT22;8466;52.286;21.124;2023-04-15T00:00:59;10.90;99.90
16700;DHT22;8466;52.286;21.124;2023-04-15T00:03:28;10.80;99.90
16700;DHT22;8466;52.286;21.124;2023-04-15T00:05:58;10.80;99.90
16700;DHT22;8466;52.286;21.124;2023-04-15T00:08:26;10.80;99.90
16700;DHT22;8466;52.286;21.124;2023-04-15T00:10:56;10.90;99.90
16700;DHT22;8466;52.286;21.124;2023-04-15T00:13:30;10.80;99.90
16700;DHT22;8466;52.286;21.124;2023-04-15T00:16:00;10.90;99.90
16700;DHT22;8466;52.286;21.124;2023-04-15T00:18:29;10.90;99.90
16700;DHT22;8466;52.286;21.124;2023-04-15T00:20:57;10.90;99.90
16700;DHT22;8466;52.286;21.124;2023-04-15T00:23:27;10.80;99.90
16700;DHT22;8466;52.286;21.124;2023-04-15T00:25:58;10.80;99.90
16700;DHT22;8466;52.286;21.124;2023-04-15T00:28:27;10.80;99.90
16700;DHT22;8466;52.286;21.124;2023-04-15T00:30:58;10.80;99.90
16700;DHT22;8466;52.286;21.124;2023-04-15T00:33:27;10.80;99.90
16700;DHT22;8466;52.286;21.124;2023-04-15T00:35:55;10.80;99.90
16700;DHT22;8466;52.286;21.124;2023-04-15T00:38:25;10.80;99.90
16700;DHT22;8466;52.286;21.124;2023-04-15T00:40:54;10.80;99.90
16700;DHT22;8466;52.286;21.124;2023-04-15T00:43:23;10.80;99.90
16700;DHT22;8466;52.286;21.124;2023-04-15T00:45:53;10.80;99.90
16700;DHT22;8466;52.286;21.124;2023-04-15T00:48:25;10.80;99.90
16700;DHT22;8466;52.286;21.124;2023-04-15T00:50:54;10.70;99.90
16700;DHT22;8466;52.286;21.124;2023-04-15T00:53:23;10.70;99.90
16700;DHT22;8466;52.286;21.124;2023-04-15T00:55:52;10.70;99.90
16700;DHT22;8466;52.286;21.124;2023-04-15T00:58:21;10.70;99.90
16700;DHT22;8466;52.286;21.124;2023-04-15T01:00:50;10.60;99.90
16700;DHT22;8466;52.286;21.124;2023-04-15T01:03:20;10.60;99.90
16700;DHT22;8466;52.286;21.124;2023-04-15T01:05:50;10.60;99.90
16700;DHT22;8466;52.286;21.124;2023-04-15T01:08:26;10.70;99.90
16700;DHT22;8466;52.286;21.124;2023-04-15T01:10:55;10.70;99.90
16700;DHT22;8466;52.286;21.124;2023-04-15T01:13:24;10.70;99.90
16700;DHT22;8466;52.286;21.124;2023-04-15T01:15:53;10.60;99.90
16700;DHT22;8466;52.286;21.124;2023-04-15T01:18:24;10.60;99.90
16700;DHT22;8466;52.286;21.124;2023-04-15T01:20:54;10.50;99.90
16700;DHT22;8466;52.286;21.124;2023-04-15T01:23:23;10.50;99.90
16700;DHT22;8466;52.286;21.124;2023-04-15T01:25:55;10.40;99.90
16700;DHT22;8466;52.286;21.124;2023-04-15T01:28:24;10.40;99.90
16700;DHT22;8466;52.286;21.124;2023-04-15T01:31:07;10.30;99.90
16700;DHT22;8466;52.286;21.124;2023-04-15T01:33:37;10.30;99.90
16700;DHT22;8466;52.286;21.124;2023-04-15T01:36:06;10.20;99.90
16700;DHT22;8466;52.286;21.124;2023-04-15T01:38:36;10.20;99.90
16700;DHT22;8466;52.286;21.124;2023-04-15T01:41:06;10.30;99.90
16700;DHT22;8466;52.286;21.124;2023-04-15T01:43:35;10.30;99.90
16700;DHT22;8466;52.286;21.124;2023-04-15T01:46:04;10.30;99.90
16700;DHT22;8466;52.286;21.124;2023-04-15T01:48:33;10.40;99.90
16700;DHT22;8466;52.286;21.124;2023-04-15T01:51:02;10.40;99.90
16700;DHT22;8466;52.286;21.124;2023-04-15T01:53:30;10.30;99.90
16700;DHT22;8466;52.286;21.124;2023-04-15T01:56:00;10.30;99.90
16700;DHT22;8466;52.286;21.124;2023-04-15T01:58:30;10.40;99.90
16700;DHT22;8466;52.286;21.124;2023-04-15T02:00:59;10.40;99.90
16700;DHT22;8466;52.286;21.124;2023-04-15T02:03:30;10.30;99.90
16700;DHT22;8466;52.286;21.124;2023-04-15T02:05:59;10.40;99.90
16700;DHT22;8466;52.286;21.124;2023-04-15T02:08:28;10.30;99.90
16700;DHT22;8466;52.286;21.124;2023-04-15T02:10:56;10.20;99.90
16700;DHT22;8466;52.286;21.124;2023-04-15T02:13:25;10.20;99.90
16700;DHT22;8466;52.286;21.124;2023-04-15T02:15:55;10.20;99.90
16700;DHT22;8466;52.286;21.124;2023-04-15T02:18:24;10.10;99.90
16700;DHT22;8466;52.286;21.124;2023-04-15T02:20:53;10.10;99.90
16700;DHT22;8466;52.286;21.124;2023-04-15T02:23:23;10.00;99.90
16700;DHT22;8466;52.286;21.124;2023-04-15T02:25:52;10.10;99.90
16700;DHT22;8466;52.286;21.124;2023-04-15T02:28:21;10.10;99.90
16700;DHT22;8466;52.286;21.124;2023-04-15T02:30:49;10.00;99.90
16700;DHT22;8466;52.286;21.124;2023-04-15T02:33:21;10.00;99.90
16700;DHT22;8466;52.286;21.124;2023-04-15T02:35:50;10.00;99.90
16700;DHT22;8466;52.286;21.124;2023-04-15T02:38:19;10.00;99.90
16700;DHT22;8466;52.286;21.124;2023-04-15T02:40:48;10.00;99.90
16700;DHT22;8466;52.286;21.124;2023-04-15T02:43:17;10.00;99.90
16700;DHT22;8466;52.286;21.124;2023-04-15T02:45:45;10.00;99.90
16700;DHT22;8466;52.286;21.124;2023-04-15T02:48:14;10.00;99.90
16700;DHT22;8466;52.286;21.124;2023-04-15T02:50:46;10.00;99.90
16700;DHT22;8466;52.286;21.124;2023-04-15T02:53:15;10.00;99.90
16700;DHT22;8466;52.286;21.124;2023-04-15T02:55:44;10.00;99.90
16700;DHT22;8466;52.286;21.124;2023-04-15T02:58:12;10.00;99.90
16700;DHT22;8466;52.286;21.124;2023-04-15T03:00:41;10.00;99.90
16700;DHT22;8466;52.286;21.124;2023-04-15T03:03:10;10.00;99.90
16700;DHT22;8466;52.286;21.124;2023-04-15T03:05:41;10.00;99.90
16700;DHT22;8466;52.286;21.124;2023-04-15T03:08:11;10.00;99.90
16700;DHT22;8466;52.286;21.124;2023-04-15T03:10:41;10.00;99.90
16700;DHT22;8466;52.286;21.124;2023-04-15T03:13:09;10.00;99.90
16700;DHT22;8466;52.286;21.124;2023-04-15T03:15:38;10.00;99.90
16700;DHT22;8466;52.286;21.124;2023-04-15T03:18:07;10.00;99.90
16700;DHT22;8466;52.286;21.124;2023-04-15T03:20:35;9.90;99.90
16700;DHT22;8466;52.286;21.124;2023-04-15T03:23:04;10.00;99.90
16700;DHT22;8466;52.286;21.124;2023-04-15T03:25:34;9.90;99.90
16700;DHT22;8466;52.286;21.124;2023-04-15T03:28:03;9.90;99.90
16700;DHT22;8466;52.286;21.124;2023-04-15T03:30:32;9.90;99.90
16700;DHT22;8466;52.286;21.124;2023-04-15T03:33:01;9.90;99.90
16700;DHT22;8466;52.286;21.124;2023-04-15T03:35:29;9.90;99.90
16700;DHT22;8466;52.286;21.124;2023-04-15T03:37:58;9.90;99.90
16700;DHT22;8466;52.286;21.124;2023-04-15T03:40:27;9.90;99.90
16700;DHT22;8466;52.286;21.124;2023-04-15T03:42:57;9.90;99.90
16700;DHT22;8466;52.286;21.124;2023-04-15T03:45:26;9.90;99.90
16700;DHT22;8466;52.286;21.124;2023-04-15T03:47:54;9.90;99.90
16700;DHT22;8466;52.286;21.124;2023-04-15T03:50:37;9.90;99.90
16700;DHT22;8466;52.286;21.124;2023-04-15T03:53:05;9.90;99.90
16700;DHT22;8466;52.286;21.124;2023-04-15T03:55:34;9.90;99.90
16700;DHT22;8466;52.286;21.124;2023-04-15T03:58:04;9.90;99.90
16700;DHT22;8466;52.286;21.124;2023-04-15T04:00:33;9.90;99.90
16700;DHT22;8466;52.286;21.124;2023-04-15T04:03:01;10.00;99.90
16700;DHT22;8466;52.286;21.124;2023-04-15T04:05:30;10.00;99.90
16700;DHT22;8466;52.286;21.124;2023-04-15T04:07:59;10.00;99.90
16700;DHT22;8466;52.286;21.124;2023-04-15T04:10:28;10.00;99.90
16700;DHT22;8466;52.286;21.124;2023-04-15T04:12:56;10.00;99.90
16700;DHT22;8466;52.286;21.124;2023-04-15T04:15:26;10.00;99.90
16700;DHT22;8466;52.286;21.124;2023-04-15T04:17:55;10.00;99.90
16700;DHT22;8466;52.286;21.124;2023-04-15T04:20:24;10.00;99.90
16700;DHT22;8466;52.286;21.124;2023-04-15T04:22:52;10.10;99.90
16700;DHT22;8466;52.286;21.124;2023-04-15T04:25:21;10.10;99.90
16700;DHT22;8466;52.286;21.124;2023-04-15T04:27:50;10.10;99.90
16700;DHT22;8466;52.286;21.124;2023-04-15T04:30:19;10.10;99.90
16700;DHT22;8466;52.286;21.124;2023-04-15T04:32:50;10.10;99.90
16700;DHT22;8466;52.286;21.124;2023-04-15T04:35:20;10.10;99.90
16700;DHT22;8466;52.286;21.124;2023-04-15T04:37:49;10.00;99.90
16700;DHT22;8466;52.286;21.124;2023-04-15T04:40:18;10.10;99.90
16700;DHT22;8466;52.286;21.124;2023-04-15T04:42:47;10.10;99.90
16700;DHT22;8466;52.286;21.124;2023-04-15T04:45:15;10.00;99.90
16700;DHT22;8466;52.286;21.124;2023-04-15T04:47:44;10.00;99.90
16700;DHT22;8466;52.286;21.124;2023-04-15T04:50:15;9.90;99.90
16700;DHT22;8466;52.286;21.124;2023-04-15T04:52:44;9.90;99.90
16700;DHT22;8466;52.286;21.124;2023-04-15T04:55:12;10.00;99.90
16700;DHT22;8466;52.286;21.124;2023-04-15T04:57:41;9.90;99.90
16700;DHT22;8466;52.286;21.124;2023-04-15T05:00:11;9.90;99.90
16700;DHT22;8466;52.286;21.124;2023-04-15T05:02:40;9.90;99.90
16700;DHT22;8466;52.286;21.124;2023-04-15T05:05:10;9.90;99.90
16700;DHT22;8466;52.286;21.124;2023-04-15T05:07:40;9.90;99.90
16700;DHT22;8466;52.286;21.124;2023-04-15T05:10:09;9.90;99.90
16700;DHT22;8466;52.286;21.124;2023-04-15T05:12:38;9.90;99.90
16700;DHT22;8466;52.286;21.124;2023-04-15T05:15:08;9.80;99.90
16700;DHT22;8466;52.286;21.124;2023-04-15T05:17:36;9.80;99.90
16700;DHT22;8466;52.286;21.124;2023-04-15T05:20:06;9.80;99.90
16700;DHT22;8466;52.286;21.124;2023-04-15T05:22:36;9.90;99.90
16700;DHT22;8466;52.286;21.124;2023-04-15T05:25:07;9.90;99.90
16700;DHT22;8466;52.286;21.124;2023-04-15T05:27:36;9.80;99.90
16700;DHT22;8466;52.286;21.124;2023-04-15T05:30:06;9.80;99.90
16700;DHT22;8466;52.286;21.124;2023-04-15T05:32:34;9.90;99.90
16700;DHT22;8466;52.286;21.124;2023-04-15T05:35:04;9.80;99.90
16700;DHT22;8466;52.286;21.124;2023-04-15T05:37:32;9.80;99.90
16700;DHT22;8466;52.286;21.124;2023-04-15T05:40:01;9.80;99.90
16700;DHT22;8466;52.286;21.124;2023-04-15T05:42:31;9.90;99.90
16700;DHT22;8466;52.286;21.124;2023-04-15T05:45:00;9.90;99.90
16700;DHT22;8466;52.286;21.124;2023-04-15T05:47:31;9.90;99.90
16700;DHT22;8466;52.286;21.124;2023-04-15T05:50:00;9.90;99.90
16700;DHT22;8466;52.286;21.124;2023-04-15T05:52:29;9.90;99.90
16700;DHT22;8466;52.286;21.124;2023-04-15T05:54:58;9.90;99.90
16700;DHT22;8466;52.286;21.124;2023-04-15T05:57:27;10.00;99.90
16700;DHT22;8466;52.286;21.124;2023-04-15T05:59:57;9.90;99.90
16700;DHT22;8466;52.286;21.124;2023-04-15T06:02:25;9.90;99.90
16700;DHT22;8466;52.286;21.124;2023-04-15T06:04:54;9.90;99.90
16700;DHT22;8466;52.286;21.124;2023-04-15T06:07:23;9.90;99.90
16700;DHT22;8466;52.286;21.124;2023-04-15T06:09:52;9.90;99.90
16700;DHT22;8466;52.286;21.124;2023-04-15T06:12:21;9.80;99.90
16700;DHT22;8466;52.286;21.124;2023-04-15T06:14:50;9.80;99.90
16700;DHT22;8466;52.286;21.124;2023-04-15T06:17:20;9.80;99.90
16700;DHT22;8466;52.286;21.124;2023-04-15T06:19:48;9.80;99.90
16700;DHT22;8466;52.286;21.124;2023-04-15T06:22:21;9.90;99.90
16700;DHT22;8466;52.286;21.124;2023-04-15T06:24:50;9.90;99.90
16700;DHT22;8466;52.286;21.124;2023-04-15T06:27:19;9.90;99.90
16700;DHT22;8466;52.286;21.124;2023-04-15T06:29:49;10.00;99.90
16700;DHT22;8466;52.286;21.124;2023-04-15T06:32:19;10.00;99.90
16700;DHT22;8466;52.286;21.124;2023-04-15T06:34:47;10.00;99.90
16700;DHT22;8466;52.286;21.124;2023-04-15T06:37:16;9.90;99.90
16700;DHT22;8466;52.286;21.124;2023-04-15T06:39:44;9.90;99.90
16700;DHT22;8466;52.286;21.124;2023-04-15T06:42:14;9.90;99.90
16700;DHT22;8466;52.286;21.124;2023-04-15T06:44:42;9.90;99.90
16700;DHT22;8466;52.286;21.124;2023-04-15T06:47:11;9.90;99.90
16700;DHT22;8466;52.286;21.124;2023-04-15T06:49:42;9.90;99.90
16700;DHT22;8466;52.286;21.124;2023-04-15T06:52:11;9.90;99.90
16700;DHT22;8466;52.286;21.124;2023-04-15T06:54:40;9.80;99.90
16700;DHT22;8466;52.286;21.124;2023-04-15T06:57:09;9.80;99.90
16700;DHT22;8466;52.286;21.124;2023-04-15T06:59:38;9.70;99.90
16700;DHT22;8466;52.286;21.124;2023-04-15T07:02:10;9.80;99.90
16700;DHT22;8466;52.286;21.124;2023-04-15T07:04:39;9.80;99.90
16700;DHT22;8466;52.286;21.124;2023-04-15T07:07:09;9.90;99.90
16700;DHT22;8466;52.286;21.124;2023-04-15T07:09:38;9.80;99.90
16700;DHT22;8466;52.286;21.124;2023-04-15T07:12:07;9.80;99.90
16700;DHT22;8466;52.286;21.124;2023-04-15T07:14:36;9.80;99.90
16700;DHT22;8466;52.286;21.124;2023-04-15T07:17:05;9.90;99.90
16700;DHT22;8466;52.286;21.124;2023-04-15T07:19:34;9.90;99.90
16700;DHT22;8466;52.286;21.124;2023-04-15T07:22:03;9.90;99.90
16700;DHT22;8466;52.286;21.124;2023-04-15T07:24:33;10.00;99.90
16700;DHT22;8466;52.286;21.124;2023-04-15T07:27:04;10.00;99.90
16700;DHT22;8466;52.286;21.124;2023-04-15T07:29:33;10.10;99.90
16700;DHT22;8466;52.286;21.124;2023-04-15T07:32:01;10.10;99.90
16700;DHT22;8466;52.286;21.124;2023-04-15T07:34:30;10.20;99.90
16700;DHT22;8466;52.286;21.124;2023-04-15T07:36:59;10.20;99.90
16700;DHT22;8466;52.286;21.124;2023-04-15T07:39:27;10.30;99.90
16700;DHT22;8466;52.286;21.124;2023-04-15T07:41:58;10.30;99.90
16700;DHT22;8466;52.286;21.124;2023-04-15T07:44:27;10.30;99.90
16700;DHT22;8466;52.286;21.124;2023-04-15T07:46:56;10.40;99.90
16700;DHT22;8466;52.286;21.124;2023-04-15T07:49:24;10.40;99.90
16700;DHT22;8466;52.286;21.124;2023-04-15T07:51:53;10.40;99.90
16700;DHT22;8466;52.286;21.124;2023-04-15T07:54:24;10.50;99.90
16700;DHT22;8466;52.286;21.124;2023-04-15T07:56:53;10.50;99.90
16700;DHT22;8466;52.286;21.124;2023-04-15T07:59:23;10.60;99.90
16700;DHT22;8466;52.286;21.124;2023-04-15T08:01:53;10.60;99.90
16700;DHT22;8466;52.286;21.124;2023-04-15T08:04:22;10.60;99.90
16700;DHT22;8466;52.286;21.124;2023-04-15T08:06:51;10.60;99.90
16700;DHT22;8466;52.286;21.124;2023-04-15T08:09:20;10.60;99.90
16700;DHT22;8466;52.286;21.124;2023-04-15T08:11:48;10.60;99.90
16700;DHT22;8466;52.286;21.124;2023-04-15T08:14:17;10.60;99.90
16700;DHT22;8466;52.286;21.124;2023-04-15T08:16:48;10.60;99.90
16700;DHT22;8466;52.286;21.124;2023-04-15T08:19:17;10.60;99.90
16700;DHT22;8466;52.286;21.124;2023-04-15T08:21:45;10.60;99.90
16700;DHT22;8466;52.286;21.124;2023-04-15T08:24:14;10.70;99.90
16700;DHT22;8466;52.286;21.124;2023-04-15T08:26:43;10.80;99.90
16700;DHT22;8466;52.286;21.124;2023-04-15T08:29:13;10.80;99.90
16700;DHT22;8466;52.286;21.124;2023-04-15T08:31:42;10.90;99.90
16700;DHT22;8466;52.286;21.124;2023-04-15T08:34:13;11.00;99.90
16700;DHT22;8466;52.286;21.124;2023-04-15T08:36:41;11.00;99.90
16700;DHT22;8466;52.286;21.124;2023-04-15T08:39:10;11.00;99.90
16700;DHT22;8466;52.286;21.124;2023-04-15T08:41:41;11.10;99.90
16700;DHT22;8466;52.286;21.124;2023-04-15T08:44:14;11.00;99.90
16700;DHT22;8466;52.286;21.124;2023-04-15T08:46:42;11.00;99.90
16700;DHT22;8466;52.286;21.124;2023-04-15T08:49:13;11.00;99.90
16700;DHT22;8466;52.286;21.124;2023-04-15T08:51:42;11.00;99.90
16700;DHT22;8466;52.286;21.124;2023-04-15T08:54:12;11.20;99.90
16700;DHT22;8466;52.286;21.124;2023-04-15T08:56:41;11.20;99.90
16700;DHT22;8466;52.286;21.124;2023-04-15T08:59:10;11.30;99.90
16700;DHT22;8466;52.286;21.124;2023-04-15T09:01:40;11.20;99.90
16700;DHT22;8466;52.286;21.124;2023-04-15T09:04:09;11.30;99.90
16700;DHT22;8466;52.286;21.124;2023-04-15T09:06:40;11.40;99.90
16700;DHT22;8466;52.286;21.124;2023-04-15T09:09:09;11.50;99.90
16700;DHT22;8466;52.286;21.124;2023-04-15T09:11:40;11.70;99.90
16700;DHT22;8466;52.286;21.124;2023-04-15T09:14:09;11.80;99.90
16700;DHT22;8466;52.286;21.124;2023-04-15T09:16:57;11.90;99.90
16700;DHT22;8466;52.286;21.124;2023-04-15T09:19:26;11.90;99.90
16700;DHT22;8466;52.286;21.124;2023-04-15T09:21:58;11.90;99.90
16700;DHT22;8466;52.286;21.124;2023-04-15T09:24:35;11.80;99.90
16700;DHT22;8466;52.286;21.124;2023-04-15T09:27:05;11.80;99.90
16700;DHT22;8466;52.286;21.124;2023-04-15T09:29:34;11.70;99.90
16700;DHT22;8466;52.286;21.124;2023-04-15T09:32:10;11.60;99.90
16700;DHT22;8466;52.286;21.124;2023-04-15T09:34:39;11.50;99.90
16700;DHT22;8466;52.286;21.124;2023-04-15T09:37:10;11.40;99.90
16700;DHT22;8466;52.286;21.124;2023-04-15T09:39:57;11.40;99.90
16700;DHT22;8466;52.286;21.124;2023-04-15T09:42:25;11.40;99.90
16700;DHT22;8466;52.286;21.124;2023-04-15T09:44:54;11.50;99.90
16700;DHT22;8466;52.286;21.124;2023-04-15T09:47:27;11.60;99.90
16700;DHT22;8466;52.286;21.124;2023-04-15T09:49:56;11.80;99.90
16700;DHT22;8466;52.286;21.124;2023-04-15T09:52:26;11.90;99.90
16700;DHT22;8466;52.286;21.124;2023-04-15T09:54:56;12.00;99.90
16700;DHT22;8466;52.286;21.124;2023-04-15T09:57:33;12.10;99.90
16700;DHT22;8466;52.286;21.124;2023-04-15T10:00:02;12.20;99.90
16700;DHT22;8466;52.286;21.124;2023-04-15T10:02:32;12.20;99.90
16700;DHT22;8466;52.286;21.124;2023-04-15T10:05:01;12.30;99.90
16700;DHT22;8466;52.286;21.124;2023-04-15T10:07:33;12.30;99.90
16700;DHT22;8466;52.286;21.124;2023-04-15T10:10:03;12.40;99.90
16700;DHT22;8466;52.286;21.124;2023-04-15T10:12:36;12.30;99.90
16700;DHT22;8466;52.286;21.124;2023-04-15T10:15:06;12.30;99.90
16700;DHT22;8466;52.286;21.124;2023-04-15T10:17:36;12.30;99.90
16700;DHT22;8466;52.286;21.124;2023-04-15T10:20:06;12.30;99.90
16700;DHT22;8466;52.286;21.124;2023-04-15T10:22:37;12.20;99.90
16700;DHT22;8466;52.286;21.124;2023-04-15T10:25:09;12.20;99.90
16700;DHT22;8466;52.286;21.124;2023-04-15T10:27:39;12.20;99.90
16700;DHT22;8466;52.286;21.124;2023-04-15T10:30:08;12.20;99.90
16700;DHT22;8466;52.286;21.124;2023-04-15T10:32:38;12.20;99.90
16700;DHT22;8466;52.286;21.124;2023-04-15T10:35:08;12.10;99.90
16700;DHT22;8466;52.286;21.124;2023-04-15T10:37:38;12.10;99.90
16700;DHT22;8466;52.286;21.124;2023-04-15T10:40:28;12.20;99.90
16700;DHT22;8466;52.286;21.124;2023-04-15T10:42:59;12.40;99.90
16700;DHT22;8466;52.286;21.124;2023-04-15T10:45:31;12.50;99.90
16700;DHT22;8466;52.286;21.124;2023-04-15T10:48:03;12.70;99.90
16700;DHT22;8466;52.286;21.124;2023-04-15T10:50:32;12.90;99.90
16700;DHT22;8466;52.286;21.124;2023-04-15T10:53:03;13.00;99.90
16700;DHT22;8466;52.286;21.124;2023-04-15T10:55:33;13.10;99.90
16700;DHT22;8466;52.286;21.124;2023-04-15T10:58:02;13.10;99.90
16700;DHT22;8466;52.286;21.124;2023-04-15T11:00:32;13.20;99.90
16700;DHT22;8466;52.286;21.124;2023-04-15T11:03:05;13.20;99.90
16700;DHT22;8466;52.286;21.124;2023-04-15T11:05:51;13.30;99.90
16700;DHT22;8466;52.286;21.124;2023-04-15T11:08:55;13.30;99.90
16700;DHT22;8466;52.286;21.124;2023-04-15T11:14:28;13.40;99.90
16700;DHT22;8466;52.286;21.124;2023-04-15T11:16:57;13.40;99.90
16700;DHT22;8466;52.286;21.124;2023-04-15T11:19:26;13.50;99.90
16700;DHT22;8466;52.286;21.124;2023-04-15T11:22:06;13.50;99.90
16700;DHT22;8466;52.286;21.124;2023-04-15T11:24:46;13.50;99.90
16700;DHT22;8466;52.286;21.124;2023-04-15T11:27:21;13.40;99.90
16700;DHT22;8466;52.286;21.124;2023-04-15T11:29:49;13.40;99.90
16700;DHT22;8466;52.286;21.124;2023-04-15T11:32:21;13.40;99.90
16700;DHT22;8466;52.286;21.124;2023-04-15T11:34:51;13.30;99.90
16700;DHT22;8466;52.286;21.124;2023-04-15T11:37:27;13.30;99.90
16700;DHT22;8466;52.286;21.124;2023-04-15T11:39:58;13.20;99.90
16700;DHT22;8466;52.286;21.124;2023-04-15T11:42:26;13.10;99.90
16700;DHT22;8466;52.286;21.124;2023-04-15T11:45:13;13.00;99.90
16700;DHT22;8466;52.286;21.124;2023-04-15T11:47:42;13.00;99.90
16700;DHT22;8466;52.286;21.124;2023-04-15T11:50:15;13.00;99.90
16700;DHT22;8466;52.286;21.124;2023-04-15T11:52:53;13.00;99.90
16700;DHT22;8466;52.286;21.124;2023-04-15T11:55:25;13.10;99.90
16700;DHT22;8466;52.286;21.124;2023-04-15T11:58:11;13.10;99.90
16700;DHT22;8466;52.286;21.124;2023-04-15T12:00:46;12.90;99.90
16700;DHT22;8466;52.286;21.124;2023-04-15T12:03:23;12.70;99.90
16700;DHT22;8466;52.286;21.124;2023-04-15T12:08:57;12.40;99.90
16700;DHT22;8466;52.286;21.124;2023-04-15T12:11:45;12.30;99.90
16700;DHT22;8466;52.286;21.124;2023-04-15T12:14:24;12.20;99.90
16700;DHT22;8466;52.286;21.124;2023-04-15T12:16:56;12.10;99.90
16700;DHT22;8466;52.286;21.124;2023-04-15T12:19:28;12.00;99.90
16700;DHT22;8466;52.286;21.124;2023-04-15T12:21:59;12.00;99.90
16700;DHT22;8466;52.286;21.124;2023-04-15T12:24:30;12.10;99.90
16700;DHT22;8466;52.286;21.124;2023-04-15T12:27:03;12.40;99.90
16700;DHT22;8466;52.286;21.124;2023-04-15T12:29:33;12.60;99.90
16700;DHT22;8466;52.286;21.124;2023-04-15T12:32:05;12.70;99.90
16700;DHT22;8466;52.286;21.124;2023-04-15T12:34:35;12.60;99.90
16700;DHT22;8466;52.286;21.124;2023-04-15T12:37:05;12.50;99.90
16700;DHT22;8466;52.286;21.124;2023-04-15T12:39:37;12.40;99.90
16700;DHT22;8466;52.286;21.124;2023-04-15T12:42:08;12.30;99.90
16700;DHT22;8466;52.286;21.124;2023-04-15T12:44:37;12.30;99.90
16700;DHT22;8466;52.286;21.124;2023-04-15T12:47:07;12.30;99.90
16700;DHT22;8466;52.286;21.124;2023-04-15T12:49:36;12.30;99.90
16700;DHT22;8466;52.286;21.124;2023-04-15T12:52:05;12.20;99.90
16700;DHT22;8466;52.286;21.124;2023-04-15T12:54:34;12.10;99.90
16700;DHT22;8466;52.286;21.124;2023-04-15T12:57:03;12.00;99.90
16700;DHT22;8466;52.286;21.124;2023-04-15T12:59:35;12.10;99.90
16700;DHT22;8466;52.286;21.124;2023-04-15T13:02:03;12.00;99.90
16700;DHT22;8466;52.286;21.124;2023-04-15T13:04:32;12.10;99.90
16700;DHT22;8466;52.286;21.124;2023-04-15T13:07:01;12.10;99.90
16700;DHT22;8466;52.286;21.124;2023-04-15T13:09:30;12.10;99.90
16700;DHT22;8466;52.286;21.124;2023-04-15T13:11:59;12.00;99.90
16700;DHT22;8466;52.286;21.124;2023-04-15T13:14:28;12.00;99.90
16700;DHT22;8466;52.286;21.124;2023-04-15T13:16:58;11.90;99.90
16700;DHT22;8466;52.286;21.124;2023-04-15T13:19:26;11.80;99.90
16700;DHT22;8466;52.286;21.124;2023-04-15T13:21:55;11.80;99.90
16700;DHT22;8466;52.286;21.124;2023-04-15T13:24:24;11.70;99.90
16700;DHT22;8466;52.286;21.124;2023-04-15T13:26:53;11.60;99.90
16700;DHT22;8466;52.286;21.124;2023-04-15T13:29:23;11.70;99.90
16700;DHT22;8466;52.286;21.124;2023-04-15T13:31:52;11.70;99.90
16700;DHT22;8466;52.286;21.124;2023-04-15T13:34:22;11.70;99.90
16700;DHT22;8466;52.286;21.124;2023-04-15T13:36:51;11.70;99.90
16700;DHT22;8466;52.286;21.124;2023-04-15T13:39:19;11.80;99.90
16700;DHT22;8466;52.286;21.124;2023-04-15T13:41:48;12.10;99.90
16700;DHT22;8466;52.286;21.124;2023-04-15T13:44:17;12.50;99.90
16700;DHT22;8466;52.286;21.124;2023-04-15T13:46:48;13.00;99.90
16700;DHT22;8466;52.286;21.124;2023-04-15T13:49:17;13.30;99.90
16700;DHT22;8466;52.286;21.124;2023-04-15T13:51:47;13.50;99.90
16700;DHT22;8466;52.286;21.124;2023-04-15T13:54:15;13.50;99.90
16700;DHT22;8466;52.286;21.124;2023-04-15T13:56:44;13.50;99.90
16700;DHT22;8466;52.286;21.124;2023-04-15T13:59:13;13.50;99.90
16700;DHT22;8466;52.286;21.124;2023-04-15T14:01:41;13.40;99.90
16700;DHT22;8466;52.286;21.124;2023-04-15T14:04:12;13.50;99.90
16700;DHT22;8466;52.286;21.124;2023-04-15T14:06:41;13.60;99.90
16700;DHT22;8466;52.286;21.124;2023-04-15T14:09:11;13.60;99.90
16700;DHT22;8466;52.286;21.124;2023-04-15T14:11:40;13.70;99.90
16700;DHT22;8466;52.286;21.124;2023-04-15T14:14:09;13.80;99.90
16700;DHT22;8466;52.286;21.124;2023-04-15T14:16:37;14.00;99.90
16700;DHT22;8466;52.286;21.124;2023-04-15T14:19:06;14.10;99.90
16700;DHT22;8466;52.286;21.124;2023-04-15T14:21:35;14.10;99.90
16700;DHT22;8466;52.286;21.124;2023-04-15T14:24:04;13.90;99.90
16700;DHT22;8466;52.286;21.124;2023-04-15T14:26:34;13.60;99.90
16700;DHT22;8466;52.286;21.124;2023-04-15T14:29:03;13.40;99.90
16700;DHT22;8466;52.286;21.124;2023-04-15T14:31:32;13.10;99.90
16700;DHT22;8466;52.286;21.124;2023-04-15T14:34:00;13.00;99.90
16700;DHT22;8466;52.286;21.124;2023-04-15T14:36:30;13.10;99.90
16700;DHT22;8466;52.286;21.124;2023-04-15T14:38:59;13.30;99.90
16700;DHT22;8466;52.286;21.124;2023-04-15T14:41:28;13.60;99.90
16700;DHT22;8466;52.286;21.124;2023-04-15T14:43:58;13.70;99.90
16700;DHT22;8466;52.286;21.124;2023-04-15T14:46:27;13.90;99.90
16700;DHT22;8466;52.286;21.124;2023-04-15T14:48:55;13.90;99.90
16700;DHT22;8466;52.286;21.124;2023-04-15T14:51:24;13.90;99.90
16700;DHT22;8466;52.286;21.124;2023-04-15T14:53:53;13.80;99.90
16700;DHT22;8466;52.286;21.124;2023-04-15T14:56:22;13.60;99.90
16700;DHT22;8466;52.286;21.124;2023-04-15T14:58:51;13.50;99.90
16700;DHT22;8466;52.286;21.124;2023-04-15T15:01:21;13.40;99.90
16700;DHT22;8466;52.286;21.124;2023-04-15T15:03:51;13.40;99.90
16700;DHT22;8466;52.286;21.124;2023-04-15T15:06:20;13.30;99.90
16700;DHT22;8466;52.286;21.124;2023-04-15T15:08:49;13.20;99.90
16700;DHT22;8466;52.286;21.124;2023-04-15T15:11:19;13.20;99.90
16700;DHT22;8466;52.286;21.124;2023-04-15T15:13:47;13.10;99.90
16700;DHT22;8466;52.286;21.124;2023-04-15T15:16:16;12.90;99.90
16700;DHT22;8466;52.286;21.124;2023-04-15T15:18:46;12.90;99.90
16700;DHT22;8466;52.286;21.124;2023-04-15T15:21:15;12.90;99.90
16700;DHT22;8466;52.286;21.124;2023-04-15T15:23:44;12.90;99.90
16700;DHT22;8466;52.286;21.124;2023-04-15T15:26:14;12.90;99.90
16700;DHT22;8466;52.286;21.124;2023-04-15T15:28:43;13.00;99.90
16700;DHT22;8466;52.286;21.124;2023-04-15T15:31:12;12.90;99.90
16700;DHT22;8466;52.286;21.124;2023-04-15T15:33:41;12.80;99.90
16700;DHT22;8466;52.286;21.124;2023-04-15T15:36:11;12.90;99.90
16700;DHT22;8466;52.286;21.124;2023-04-15T15:38:40;13.00;99.90
16700;DHT22;8466;52.286;21.124;2023-04-15T15:41:08;13.00;99.90
16700;DHT22;8466;52.286;21.124;2023-04-15T15:43:37;12.90;99.90
16700;DHT22;8466;52.286;21.124;2023-04-15T15:46:06;12.90;99.90
16700;DHT22;8466;52.286;21.124;2023-04-15T15:48:35;12.70;99.90
16700;DHT22;8466;52.286;21.124;2023-04-15T15:51:04;12.70;99.90
16700;DHT22;8466;52.286;21.124;2023-04-15T15:53:34;12.80;99.90
16700;DHT22;8466;52.286;21.124;2023-04-15T15:56:03;13.10;99.90
16700;DHT22;8466;52.286;21.124;2023-04-15T15:58:32;12.70;99.90